Panama City Beach, FL (32413)

6:34 AM CDT on September 02, 2015 (GMT -0500)
FSU Panama City WeatherSTEM | | Change Station
CLOSE
Current Station
Personal Weather Station
Location: Panama City, FL
Elevation: 32 ft
Nearby Weather Stations

Elev 32 ft 30.19 °N, 85.72 °W | Updated 2 minutes ago

Clear
Clear
80.3 °F
Feels Like 85 °F
N
4.0
Wind Variable Wind from WNW
Gusts 9.0 mph

Today
High -- | Low -- °F
--% Chance of Precip.
Yesterday
High -- | Low -- °F
Precip. -- in
6:20 AM 7:04 PM
Waning Gibbous, 81% visible
Pressure 30.05 in
Visibility 10.0 miles
Clouds Few 11000 ft
Heat Index 85 °F
Dew Point 75 °F
Humidity 84%
Rainfall 0.00 in
Snow Depth Not available.
UV 0.0 out of 12
Pollen 8.00 out of 12
Air Quality Not available.
Flu Activity Not available.
SPECI KPAM 021124Z AUTO 00000KT 10SM -DZ FEW110 24/23 A3005 RMK AO2 DZB1058
Pressure 30.05 in
Visibility 10.0 miles
Clouds Few 11000 ft
Heat Index 85 °F
Dew Point 75 °F
Humidity 84%
Rainfall 0.00 in
Snow Depth Not available.
UV 0.0 out of 12
Pollen 8.00 out of 12
Air Quality Not available.
Flu Activity Not available.
SPECI KPAM 021124Z AUTO 00000KT 10SM -DZ FEW110 24/23 A3005 RMK AO2 DZB1058

10-Day Weather Forecast

×

Almanac

Astronomy

Sep. 02, 2015 Rise Set
Actual Time
Civil Twilight
Nautical Twilight
Astronomical Twilight
Moon
Length of Visible Light
Length of Day
Tomorrow will be .
, % of the Moon is Illuminated

Today's Extremes

State Highs State Lows

Community

WunderPhotos

Upload Photos

1,851,736 photos uploaded!

WunderBlogs® & News

Nearby

Air Quality

  Air Quality AQ Index Pollutant
Not available.

Snow Depth

Station Depth Elevation

Earthquake Activity

City Distance Mag. Time & Date
Minimum magnitude displayed is 2.5.

Coastal Water Temperatures

Place Temperature

Stations

Nearby Weather Stations

Station Location Temp. Windchill Dew Point Humidity Wind Precip. Elev Updated Type